Hauptseite
METAR-TAF:

METAR-TAF

Flughäfen :

Burgos, Spanien

Flughafen Burgos

Breite: 42-22N, Länge: 003-38W, Höhe: 894 m

Beobachtung

Neuester Wetterbericht von vor 26 Minuten, um 14:30 UTC
Wind 3 kt aus Südwest, variierte zwischen Süd und West
Temperatur 8°C
Luftfeuchtigkeit 81%
Luftdruck 1022 hPa
Sichtweite 10 km oder mehr
Leicht bewölkt in der Höhe von 800 ft
Aufgelockert bewölkt in der Höhe von 1500 ft

METAR: LEBG 191430Z 23003KT 170V270 9999 FEW008 SCT015 08/05 Q1022

Zeit: 15:56 (14:56 UTC)

Prognose

Neuester Wetterbericht von vor 56 Minuten, um 14:00 UTC
Gültige Prognose vom 19 um 15 UTC bis 19 um 24 UTC
Wind 7 kt aus West/Südwest
Sichtweite 10 km oder mehr
Leicht bewölkt in der Höhe von 1200 ft
Wahrscheinlichkeit 30% :
Zeitweise
vom 19 um 15 UTC bis 19 um 17 UTC
Durchbrochene Bewölkung in der Höhe von 600 ft

TAF: LEBG 191400Z 1915/1924 25007KT 9999 FEW012 PROB30 TEMPO 1915/1917 BKN006

Wetterbeobachtungen und Prognosen von mehr als 4000 Flughäfen (METAR und TAF Bericht).

Die verfügbaren Stationen werden durch gelbe und rote Markierungen auf der Karte dargestellt.

Führen Sie die Maus auf sie, um den Namen der Station zu sehen.

Darauf klicken, um die Beobachtung von Wetterbeobachtungen und Prognosen zu sehen.

Um die Karte zu ändern : klicken Sie auf den grünen Tasten mit einem schwarzen Kreuz Zum Vergrößern, auf den grünen Button mit einem Gedankenstrich zu verkleinern, oder auf die grünen Pfeile für benachbarte Karten.


METAR-TAF: